createdAt,value
2023-04-11T00:00:02.686Z,0.00
2023-04-11T00:01:02.566Z,0.00
2023-04-11T00:02:01.603Z,0.00
2023-04-11T00:03:02.168Z,0.00
2023-04-11T00:04:02.161Z,0.00
2023-04-11T00:05:01.926Z,0.00
2023-04-11T00:06:01.663Z,0.00
2023-04-11T00:07:02.262Z,0.00
2023-04-11T00:08:01.744Z,0.00
2023-04-11T00:09:02.126Z,0.00
2023-04-11T00:10:01.944Z,0.00
2023-04-11T00:11:01.961Z,0.00
2023-04-11T00:12:02.520Z,0.00
2023-04-11T00:13:02.038Z,0.00
2023-04-11T00:14:01.927Z,0.00
2023-04-11T00:15:01.911Z,0.00
2023-04-11T00:16:02.565Z,0.00
2023-04-11T00:17:02.687Z,0.00
2023-04-11T00:18:02.283Z,0.00
2023-04-11T00:19:02.189Z,0.00
2023-04-11T00:20:02.697Z,0.00
2023-04-11T00:21:02.383Z,0.00
2023-04-11T00:22:02.913Z,0.00
2023-04-11T00:23:02.505Z,0.00
2023-04-11T00:24:02.352Z,0.00
2023-04-11T00:25:02.862Z,0.00
2023-04-11T00:26:02.347Z,0.00
2023-04-11T00:27:02.352Z,0.00
2023-04-11T00:28:02.896Z,0.00
2023-04-11T00:29:02.449Z,0.00
2023-04-11T00:30:02.340Z,0.00
2023-04-11T00:31:02.671Z,0.00
2023-04-11T00:32:01.707Z,0.00
2023-04-11T00:33:02.307Z,0.00
2023-04-11T00:34:02.011Z,0.00
2023-04-11T00:35:01.806Z,0.00
2023-04-11T00:36:01.620Z,0.00
2023-04-11T00:37:02.708Z,0.00
2023-04-11T00:38:02.489Z,0.00
2023-04-11T00:39:02.807Z,0.00
2023-04-11T00:40:02.475Z,0.00
2023-04-11T00:41:02.368Z,0.00
2023-04-11T00:42:02.240Z,0.00
2023-04-11T00:43:02.254Z,0.00
2023-04-11T00:44:02.802Z,0.00
2023-04-11T00:45:02.783Z,0.00
2023-04-11T00:46:02.605Z,0.00
2023-04-11T00:47:01.498Z,0.00
2023-04-11T00:48:02.118Z,0.00
2023-04-11T00:49:01.540Z,0.00
2023-04-11T00:50:01.406Z,0.00
2023-04-11T00:51:02.008Z,0.00
2023-04-11T00:52:01.623Z,0.00
2023-04-11T00:53:02.169Z,0.00
2023-04-11T00:54:02.210Z,0.00
2023-04-11T00:55:02.044Z,0.00
2023-04-11T00:56:01.570Z,0.00
2023-04-11T00:57:02.413Z,0.00
2023-04-11T00:58:02.389Z,0.00
2023-04-11T00:59:02.259Z,0.00
2023-04-11T01:00:02.134Z,0.00
2023-04-11T01:01:02.322Z,0.00
2023-04-11T01:02:02.943Z,0.00
2023-04-11T01:03:03.133Z,0.00
2023-04-11T01:04:03.318Z,0.00
2023-04-11T01:05:02.891Z,0.00
2023-04-11T01:06:02.875Z,0.00
2023-04-11T01:07:02.535Z,0.00
2023-04-11T01:08:02.734Z,0.00
2023-04-11T01:09:02.499Z,0.00
2023-04-11T01:10:02.386Z,0.00
2023-04-11T01:11:02.902Z,0.00
2023-04-11T01:12:02.603Z,0.00
2023-04-11T01:13:03.040Z,0.00
2023-04-11T01:14:02.889Z,0.00
2023-04-11T01:15:02.668Z,0.00
2023-04-11T01:16:02.725Z,0.00
2023-04-11T01:17:02.872Z,0.00
2023-04-11T01:18:02.564Z,0.00
2023-04-11T01:19:02.680Z,0.00
2023-04-11T01:20:02.621Z,0.00
2023-04-11T01:21:02.435Z,0.00
2023-04-11T01:22:03.294Z,0.00
2023-04-11T01:23:03.007Z,0.00
2023-04-11T01:24:03.050Z,0.00
2023-04-11T01:25:03.126Z,0.00
2023-04-11T01:26:03.400Z,0.00
2023-04-11T01:27:03.005Z,0.00
2023-04-11T01:28:03.263Z,0.00
2023-04-11T01:29:03.181Z,0.00
2023-04-11T01:30:03.298Z,0.00
2023-04-11T01:31:02.851Z,0.00
2023-04-11T01:32:02.561Z,0.00
2023-04-11T01:33:02.394Z,0.00
2023-04-11T01:34:02.733Z,0.00
2023-04-11T01:35:02.387Z,0.00
2023-04-11T01:36:02.254Z,0.00
2023-04-11T01:37:02.555Z,0.00
2023-04-11T01:38:02.753Z,0.00
2023-04-11T01:39:02.637Z,0.00
2023-04-11T01:40:03.056Z,0.00
2023-04-11T01:41:02.488Z,0.00
2023-04-11T01:42:03.048Z,0.00
2023-04-11T01:43:02.893Z,0.00
2023-04-11T01:44:02.815Z,0.00
2023-04-11T01:45:03.264Z,0.00
2023-04-11T01:46:02.931Z,0.00
2023-04-11T01:47:02.518Z,0.00
2023-04-11T01:48:02.936Z,0.00
2023-04-11T01:49:02.426Z,0.00
2023-04-11T01:50:02.567Z,0.00
2023-04-11T01:51:02.498Z,0.00
2023-04-11T01:52:03.191Z,0.00
2023-04-11T01:53:03.060Z,0.00
2023-04-11T01:54:03.361Z,0.00
2023-04-11T01:55:03.081Z,0.00
2023-04-11T01:56:03.049Z,0.00
2023-04-11T01:57:02.679Z,0.00
2023-04-11T01:58:02.350Z,0.00
2023-04-11T01:59:02.586Z,0.00
2023-04-11T02:00:02.609Z,0.00
2023-04-11T02:01:02.431Z,0.00
2023-04-11T02:02:02.910Z,0.00
2023-04-11T02:03:02.790Z,0.00
2023-04-11T02:04:02.762Z,0.00
2023-04-11T02:05:02.746Z,0.00
2023-04-11T02:06:02.608Z,0.00
2023-04-11T02:07:03.380Z,0.00
2023-04-11T02:08:03.050Z,0.00
2023-04-11T02:09:03.184Z,0.00
2023-04-11T02:10:03.410Z,0.00
2023-04-11T02:11:02.812Z,0.00
2023-04-11T02:12:03.476Z,0.00
2023-04-11T02:13:03.549Z,0.00
2023-04-11T02:14:03.535Z,0.00
2023-04-11T02:15:03.269Z,0.00
2023-04-11T02:16:03.305Z,0.00
2023-04-11T02:17:03.855Z,0.00
2023-04-11T02:18:03.590Z,0.00
2023-04-11T02:19:03.655Z,0.00
2023-04-11T02:20:03.879Z,0.00
2023-04-11T02:21:03.849Z,0.00
2023-04-11T02:22:03.962Z,0.00
2023-04-11T02:23:03.657Z,0.00
2023-04-11T02:24:03.939Z,0.00
2023-04-11T02:25:03.529Z,0.00
2023-04-11T02:26:03.301Z,0.00
2023-04-11T02:27:02.425Z,0.00
2023-04-11T02:28:02.442Z,0.00
2023-04-11T02:29:02.470Z,0.00
2023-04-11T02:30:02.776Z,0.00
2023-04-11T02:31:03.006Z,0.00
2023-04-11T02:32:03.524Z,0.00
2023-04-11T02:33:03.133Z,0.00
2023-04-11T02:34:03.346Z,0.00
2023-04-11T02:35:03.216Z,0.00
2023-04-11T02:36:03.097Z,0.00
2023-04-11T02:37:03.740Z,0.00
2023-04-11T02:38:03.888Z,0.00
2023-04-11T02:39:03.756Z,0.00
2023-04-11T02:40:03.731Z,0.00
2023-04-11T02:41:03.318Z,0.00
2023-04-11T02:42:03.164Z,0.00
2023-04-11T02:43:03.545Z,0.00
2023-04-11T02:44:03.168Z,0.00
2023-04-11T02:45:02.951Z,0.00
2023-04-11T02:46:12.508Z,0.00
2023-04-11T02:47:02.756Z,0.00
2023-04-11T02:48:02.826Z,0.00
2023-04-11T02:49:02.955Z,0.00
2023-04-11T02:50:02.398Z,0.00
2023-04-11T02:51:02.645Z,0.00
2023-04-11T02:52:03.113Z,0.00
2023-04-11T02:53:03.359Z,0.00
2023-04-11T02:54:03.220Z,0.00
2023-04-11T02:55:03.339Z,0.00
2023-04-11T02:56:03.157Z,0.00
2023-04-11T02:57:02.495Z,0.00
2023-04-11T02:58:02.361Z,0.00
2023-04-11T02:59:02.436Z,0.00
2023-04-11T03:00:02.993Z,0.00
2023-04-11T03:01:02.562Z,0.00
2023-04-11T03:02:03.187Z,0.00
2023-04-11T03:03:02.965Z,0.00
2023-04-11T03:04:02.765Z,0.00
2023-04-11T03:05:03.252Z,0.00
2023-04-11T03:06:03.013Z,0.00
2023-04-11T03:07:02.034Z,0.00
2023-04-11T03:08:02.289Z,0.00
2023-04-11T03:09:02.127Z,0.00
2023-04-11T03:10:02.163Z,0.00
2023-04-11T03:11:02.483Z,0.00
2023-04-11T03:12:02.600Z,0.00
2023-04-11T03:13:02.694Z,0.00
2023-04-11T03:14:02.985Z,0.00
2023-04-11T03:15:02.697Z,0.00
2023-04-11T03:16:02.921Z,0.00
2023-04-11T03:17:02.823Z,0.00
2023-04-11T03:18:03.037Z,0.00
2023-04-11T03:19:03.052Z,0.00
2023-04-11T03:20:03.139Z,0.00
2023-04-11T03:21:02.941Z,0.00
2023-04-11T03:22:02.463Z,0.00
2023-04-11T03:23:02.677Z,0.00
2023-04-11T03:24:02.139Z,0.00
2023-04-11T03:25:02.083Z,0.00
2023-04-11T03:26:02.612Z,0.00
2023-04-11T03:27:02.730Z,0.00
2023-04-11T03:28:02.613Z,0.00
2023-04-11T03:29:02.465Z,0.00
2023-04-11T03:30:02.672Z,0.00
2023-04-11T03:31:02.584Z,0.00
2023-04-11T03:32:02.696Z,0.00
2023-04-11T03:33:03.101Z,0.00
2023-04-11T03:34:03.258Z,0.00
2023-04-11T03:35:02.789Z,0.00
2023-04-11T03:36:02.872Z,0.00
2023-04-11T03:37:02.143Z,0.00
2023-04-11T03:38:02.379Z,0.00
2023-04-11T03:39:02.059Z,0.00
2023-04-11T03:40:02.320Z,0.00
2023-04-11T03:41:02.251Z,0.00
2023-04-11T03:42:02.708Z,0.00
2023-04-11T03:43:04.686Z,0.00
2023-04-11T03:44:02.464Z,0.00
2023-04-11T03:45:02.488Z,0.00
2023-04-11T03:46:02.344Z,0.00
2023-04-11T03:47:02.308Z,0.00
2023-04-11T03:48:02.810Z,0.00
2023-04-11T03:49:02.120Z,0.00
2023-04-11T03:50:02.360Z,0.00
2023-04-11T03:51:02.156Z,0.00
2023-04-11T03:52:02.407Z,0.00
2023-04-11T03:53:02.359Z,0.00
2023-04-11T03:54:02.803Z,0.00
2023-04-11T03:55:02.742Z,0.00
2023-04-11T03:56:02.614Z,0.00
2023-04-11T03:57:02.289Z,0.00
2023-04-11T03:58:02.013Z,0.00
2023-04-11T03:59:01.904Z,0.00
2023-04-11T04:00:01.971Z,0.00
2023-04-11T04:01:01.907Z,0.00
2023-04-11T04:02:02.396Z,0.00
2023-04-11T04:03:02.540Z,0.00
2023-04-11T04:04:03.370Z,0.00
2023-04-11T04:05:02.564Z,0.00
2023-04-11T04:06:02.465Z,0.00
2023-04-11T04:07:02.988Z,0.00
2023-04-11T04:08:03.160Z,0.00
2023-04-11T04:09:02.690Z,0.00
2023-04-11T04:10:02.613Z,0.00
2023-04-11T04:11:02.812Z,0.00
2023-04-11T04:12:02.460Z,0.00
2023-04-11T04:13:02.404Z,0.00
2023-04-11T04:14:02.517Z,0.00
2023-04-11T04:15:02.674Z,0.00
2023-04-11T04:16:03.943Z,4.00
2023-04-11T04:17:02.848Z,4.00
2023-04-11T04:18:02.659Z,4.00
2023-04-11T04:19:02.534Z,0.00
2023-04-11T04:20:02.792Z,4.00
2023-04-11T04:21:03.017Z,4.00
2023-04-11T04:22:01.958Z,4.00
2023-04-11T04:23:02.311Z,8.00
2023-04-11T04:24:01.974Z,4.00
2023-04-11T04:25:02.125Z,8.00
2023-04-11T04:26:02.094Z,8.00
2023-04-11T04:27:02.734Z,12.00
2023-04-11T04:28:02.254Z,12.00
2023-04-11T04:29:02.333Z,16.00
2023-04-11T04:30:04.129Z,20.00
2023-04-11T04:31:02.732Z,20.00
2023-04-11T04:32:03.160Z,24.00
2023-04-11T04:33:02.622Z,28.00
2023-04-11T04:34:02.366Z,32.00
2023-04-11T04:35:02.998Z,40.00
2023-04-11T04:36:03.037Z,48.00
2023-04-11T04:37:02.036Z,56.00
2023-04-11T04:38:02.331Z,68.00
2023-04-11T04:39:01.816Z,76.00
2023-04-11T04:40:01.901Z,84.00
2023-04-11T04:41:01.817Z,100.00
2023-04-11T04:42:02.294Z,112.00
2023-04-11T04:43:02.428Z,128.00
2023-04-11T04:44:02.082Z,136.00
2023-04-11T04:45:02.471Z,152.00
2023-04-11T04:46:02.429Z,168.00
2023-04-11T04:47:02.615Z,176.00
2023-04-11T04:48:02.455Z,188.00
2023-04-11T04:49:02.895Z,208.00
2023-04-11T04:50:02.551Z,232.00
2023-04-11T04:51:02.311Z,256.00
2023-04-11T04:52:02.863Z,284.00
2023-04-11T04:53:02.432Z,308.00
2023-04-11T04:54:02.751Z,332.00
2023-04-11T04:55:02.600Z,364.00
2023-04-11T04:56:02.911Z,404.00
2023-04-11T04:57:02.881Z,440.00
2023-04-11T04:58:02.535Z,476.00
2023-04-11T04:59:02.816Z,512.00
2023-04-11T05:00:03.107Z,544.00
2023-04-11T05:01:03.161Z,564.00
2023-04-11T05:02:03.013Z,600.00
2023-04-11T05:03:03.016Z,656.00
2023-04-11T05:04:03.681Z,708.00
2023-04-11T05:05:03.057Z,764.00
2023-04-11T05:06:02.835Z,828.00
2023-04-11T05:07:03.584Z,840.00
2023-04-11T05:08:03.462Z,784.00
2023-04-11T05:09:03.595Z,804.00
2023-04-11T05:10:03.370Z,884.00
2023-04-11T05:11:03.797Z,864.00
2023-04-11T05:12:03.957Z,844.00
2023-04-11T05:13:03.187Z,808.00
2023-04-11T05:14:03.479Z,748.00
2023-04-11T05:15:03.200Z,676.00
2023-04-11T05:16:03.263Z,668.00
2023-04-11T05:17:03.109Z,688.00
2023-04-11T05:18:02.960Z,724.00
2023-04-11T05:19:02.763Z,800.00
2023-04-11T05:20:02.725Z,808.00
2023-04-11T05:21:02.696Z,860.00
2023-04-11T05:22:03.473Z,976.00
2023-04-11T05:23:03.165Z,1016.00
2023-04-11T05:24:03.297Z,960.00
2023-04-11T05:25:03.519Z,944.00
2023-04-11T05:26:03.381Z,1060.00
2023-04-11T05:27:03.250Z,1112.00
2023-04-11T05:28:03.478Z,1156.00
2023-04-11T05:29:03.534Z,1268.00
2023-04-11T05:30:03.197Z,1416.00
2023-04-11T05:31:03.251Z,1416.00
2023-04-11T05:32:03.076Z,1228.00
2023-04-11T05:33:03.034Z,1264.00
2023-04-11T05:34:02.805Z,1428.00
2023-04-11T05:35:02.691Z,1600.00
2023-04-11T05:36:02.773Z,1672.00
2023-04-11T05:37:03.201Z,1712.00
2023-04-11T05:38:02.916Z,1712.00
2023-04-11T05:39:02.990Z,1656.00
2023-04-11T05:40:03.512Z,1572.00
2023-04-11T05:41:03.054Z,1480.00
2023-04-11T05:42:03.209Z,1380.00
2023-04-11T05:43:03.120Z,1464.00
2023-04-11T05:44:03.559Z,1476.00
2023-04-11T05:45:03.726Z,1544.00
2023-04-11T05:46:03.129Z,1712.00
2023-04-11T05:47:03.601Z,1984.00
2023-04-11T05:48:03.430Z,2200.00
2023-04-11T05:49:03.968Z,2248.00
2023-04-11T05:50:03.608Z,2188.00
2023-04-11T05:51:03.518Z,2064.00
2023-04-11T05:52:03.539Z,2024.00
2023-04-11T05:53:03.533Z,2100.00
2023-04-11T05:54:03.229Z,2248.00
2023-04-11T05:55:03.036Z,1884.00
2023-04-11T05:56:03.499Z,1780.00
2023-04-11T05:57:03.164Z,1568.00
2023-04-11T05:58:03.221Z,1416.00
2023-04-11T05:59:03.019Z,1492.00
2023-04-11T06:00:03.084Z,1824.00
2023-04-11T06:01:03.584Z,1324.00
2023-04-11T06:02:02.648Z,1516.00
2023-04-11T06:03:03.249Z,1992.00
2023-04-11T06:04:03.076Z,2376.00
2023-04-11T06:05:02.893Z,2640.00
2023-04-11T06:06:02.812Z,2828.00
2023-04-11T06:07:03.406Z,3012.00
2023-04-11T06:08:03.065Z,2908.00
2023-04-11T06:09:03.167Z,2532.00
2023-04-11T06:10:03.164Z,2184.00
2023-04-11T06:11:03.274Z,1664.00
2023-04-11T06:12:02.468Z,1736.00
2023-04-11T06:13:02.817Z,2240.00
2023-04-11T06:14:02.906Z,2644.00
2023-04-11T06:15:02.586Z,2504.00
2023-04-11T06:16:02.929Z,2248.00
2023-04-11T06:17:02.925Z,2376.00
2023-04-11T06:18:02.972Z,2960.00
2023-04-11T06:19:02.660Z,3116.00
2023-04-11T06:20:05.941Z,2924.00
2023-04-11T06:21:02.621Z,3160.00
2023-04-11T06:22:02.000Z,3236.00
2023-04-11T06:23:02.566Z,3244.00
2023-04-11T06:24:02.346Z,2712.00
2023-04-11T06:25:02.051Z,2568.00
2023-04-11T06:26:02.158Z,2820.00
2023-04-11T06:27:02.803Z,3404.00
2023-04-11T06:28:02.846Z,4776.00
2023-04-11T06:29:02.400Z,5580.00
2023-04-11T06:30:02.673Z,5688.00
2023-04-11T06:31:02.791Z,5144.00
2023-04-11T06:32:02.369Z,5712.00
2023-04-11T06:33:02.379Z,5884.00
2023-04-11T06:34:02.597Z,5688.00
2023-04-11T06:35:02.796Z,5532.00
2023-04-11T06:36:04.859Z,5068.00
2023-04-11T06:37:03.301Z,5652.00
2023-04-11T06:38:02.800Z,5604.00
2023-04-11T06:39:03.001Z,5860.00
2023-04-11T06:40:03.198Z,5380.00
2023-04-11T06:41:02.765Z,5032.00
2023-04-11T06:42:02.169Z,5404.00
2023-04-11T06:43:02.640Z,4900.00
2023-04-11T06:44:02.267Z,4552.00
2023-04-11T06:45:02.353Z,4804.00
2023-04-11T06:46:02.691Z,5024.00
2023-04-11T06:47:02.357Z,5184.00
2023-04-11T06:48:02.755Z,6128.00
2023-04-11T06:49:02.287Z,6596.00
2023-04-11T06:50:02.133Z,6444.00
2023-04-11T06:51:02.280Z,7292.00
2023-04-11T06:52:02.933Z,8104.00
2023-04-11T06:53:02.851Z,8036.00
2023-04-11T06:54:02.442Z,8140.00
2023-04-11T06:55:02.467Z,11456.00
2023-04-11T06:56:03.069Z,22464.00
2023-04-11T06:57:02.181Z,8536.00
2023-04-11T06:58:02.488Z,8944.00
2023-04-11T06:59:02.509Z,8960.00
2023-04-11T07:00:02.399Z,7832.00
2023-04-11T07:01:02.363Z,8496.00
2023-04-11T07:02:02.343Z,7496.00
2023-04-11T07:03:02.889Z,8128.00
2023-04-11T07:04:02.821Z,7264.00
2023-04-11T07:05:02.495Z,6192.00
2023-04-11T07:06:02.244Z,5384.00
2023-04-11T07:07:03.310Z,5900.00
2023-04-11T07:08:02.890Z,6416.00
2023-04-11T07:09:02.827Z,6092.00
2023-04-11T07:10:03.325Z,5736.00
2023-04-11T07:11:03.143Z,5136.00
2023-04-11T07:12:02.695Z,4676.00
2023-04-11T07:13:02.460Z,5076.00
2023-04-11T07:14:02.445Z,6756.00
2023-04-11T07:15:02.492Z,7752.00
2023-04-11T07:16:02.977Z,9808.00
2023-04-11T07:17:02.845Z,12368.00
2023-04-11T07:18:02.777Z,8948.00
2023-04-11T07:19:02.828Z,7476.00
2023-04-11T07:20:02.745Z,7704.00
2023-04-11T07:21:03.117Z,6584.00
2023-04-11T07:22:02.811Z,6420.00
2023-04-11T07:23:02.645Z,5524.00
2023-04-11T07:24:02.584Z,4404.00
2023-04-11T07:25:02.757Z,4204.00
2023-04-11T07:26:02.463Z,4976.00
2023-04-11T07:27:02.820Z,5656.00
2023-04-11T07:28:02.714Z,6308.00
2023-04-11T07:29:02.964Z,6756.00
2023-04-11T07:30:02.958Z,6268.00
2023-04-11T07:31:02.924Z,6176.00
2023-04-11T07:32:03.153Z,5664.00
2023-04-11T07:33:03.562Z,5660.00
2023-04-11T07:34:03.414Z,6080.00
2023-04-11T07:35:03.444Z,6824.00
2023-04-11T07:36:03.234Z,6716.00
2023-04-11T07:37:03.382Z,6120.00
2023-04-11T07:38:03.408Z,6700.00
2023-04-11T07:39:03.565Z,10816.00
2023-04-11T07:40:03.657Z,20480.00
2023-04-11T07:41:03.049Z,20384.00
2023-04-11T07:42:02.655Z,20352.00
2023-04-11T07:43:02.985Z,20256.00
2023-04-11T07:44:02.774Z,19840.00
2023-04-11T07:45:03.000Z,20832.00
2023-04-11T07:46:02.864Z,21280.00
2023-04-11T07:47:03.104Z,21856.00
2023-04-11T07:48:02.827Z,22944.00
2023-04-11T07:49:02.828Z,23744.00
2023-04-11T07:50:02.879Z,23968.00
2023-04-11T07:51:03.336Z,23712.00
2023-04-11T07:52:02.748Z,23936.00
2023-04-11T07:53:02.566Z,24672.00
2023-04-11T07:54:02.167Z,24640.00
2023-04-11T07:55:02.774Z,23744.00
2023-04-11T07:56:02.399Z,27104.00
2023-04-11T07:57:03.267Z,17824.00
2023-04-11T07:58:02.605Z,28736.00
2023-04-11T07:59:02.811Z,22624.00
2023-04-11T08:00:02.978Z,16192.00
2023-04-11T08:01:02.637Z,27680.00
2023-04-11T08:02:02.451Z,13976.00
2023-04-11T08:03:02.013Z,14032.00
2023-04-11T08:04:02.549Z,11476.00
2023-04-11T08:05:01.865Z,9520.00
2023-04-11T08:06:02.319Z,7628.00
2023-04-11T08:07:02.649Z,8352.00
2023-04-11T08:08:02.687Z,9024.00
2023-04-11T08:09:02.499Z,7992.00
2023-04-11T08:10:02.204Z,7260.00
2023-04-11T08:11:02.548Z,7632.00
2023-04-11T08:12:03.279Z,8304.00
2023-04-11T08:13:03.106Z,9928.00
2023-04-11T08:14:03.029Z,10532.00
2023-04-11T08:15:02.690Z,10376.00
2023-04-11T08:16:02.958Z,25056.00
2023-04-11T08:17:02.615Z,26912.00
2023-04-11T08:18:02.431Z,26880.00
2023-04-11T08:19:02.453Z,9288.00
2023-04-11T08:20:02.719Z,28512.00
2023-04-11T08:21:02.184Z,11360.00
2023-04-11T08:22:02.710Z,30784.00
2023-04-11T08:23:04.683Z,18496.00
2023-04-11T08:24:02.762Z,32704.00
2023-04-11T08:25:02.681Z,30688.00
2023-04-11T08:26:02.197Z,33024.00
2023-04-11T08:27:02.734Z,33184.00
2023-04-11T08:28:02.931Z,34592.00
2023-04-11T08:29:03.091Z,37248.00
2023-04-11T08:30:02.986Z,24064.00
2023-04-11T08:31:03.184Z,36704.00
2023-04-11T08:32:02.444Z,34912.00
2023-04-11T08:33:02.114Z,13856.00
2023-04-11T08:34:03.834Z,36320.00
2023-04-11T08:35:02.452Z,18624.00
2023-04-11T08:36:02.419Z,33824.00
2023-04-11T08:37:02.939Z,38016.00
2023-04-11T08:38:02.997Z,17472.00
2023-04-11T08:39:03.075Z,39456.00
2023-04-11T08:40:03.079Z,29696.00
2023-04-11T08:41:02.774Z,30784.00
2023-04-11T08:42:02.565Z,38464.00
2023-04-11T08:43:02.501Z,25728.00
2023-04-11T08:44:02.282Z,13588.00
2023-04-11T08:45:02.675Z,40544.00
2023-04-11T08:46:02.294Z,12328.00
2023-04-11T08:47:02.485Z,20672.00
2023-04-11T08:48:02.939Z,9632.00
2023-04-11T08:49:02.545Z,10916.00
2023-04-11T08:50:02.765Z,39040.00
2023-04-11T08:51:02.431Z,39872.00
2023-04-11T08:52:02.746Z,37664.00
2023-04-11T08:53:02.929Z,33600.00
2023-04-11T08:54:02.873Z,9072.00
2023-04-11T08:55:03.265Z,8452.00
2023-04-11T08:56:03.022Z,9128.00
2023-04-11T08:57:02.380Z,36480.00
2023-04-11T08:58:02.062Z,37536.00
2023-04-11T08:59:02.014Z,23776.00
2023-04-11T09:00:02.206Z,11940.00
2023-04-11T09:01:02.367Z,9984.00
2023-04-11T09:02:02.936Z,11860.00
2023-04-11T09:03:02.799Z,38112.00
2023-04-11T09:04:02.541Z,37440.00
2023-04-11T09:05:02.898Z,36672.00
2023-04-11T09:06:02.198Z,12312.00
2023-04-11T09:07:02.953Z,33504.00
2023-04-11T09:08:03.341Z,33248.00
2023-04-11T09:09:02.926Z,33920.00
2023-04-11T09:10:03.217Z,34912.00
2023-04-11T09:11:03.254Z,37472.00
2023-04-11T09:12:02.952Z,38016.00
2023-04-11T09:13:02.985Z,38848.00
2023-04-11T09:14:02.788Z,39968.00
2023-04-11T09:15:02.487Z,39776.00
2023-04-11T09:16:02.676Z,23808.00
2023-04-11T09:17:02.178Z,21088.00
2023-04-11T09:18:02.327Z,37120.00
2023-04-11T09:19:02.745Z,37792.00
2023-04-11T09:20:02.775Z,35872.00
2023-04-11T09:21:02.228Z,34464.00
2023-04-11T09:22:02.370Z,9240.00
2023-04-11T09:23:02.866Z,9968.00
2023-04-11T09:24:02.361Z,12316.00
2023-04-11T09:25:02.315Z,14416.00
2023-04-11T09:26:02.678Z,15552.00
2023-04-11T09:27:02.712Z,17152.00
2023-04-11T09:28:02.957Z,36800.00
2023-04-11T09:29:02.985Z,30944.00
2023-04-11T09:30:02.897Z,35968.00
2023-04-11T09:31:03.243Z,35104.00
2023-04-11T09:32:02.170Z,34240.00
2023-04-11T09:33:02.280Z,33952.00
2023-04-11T09:34:02.297Z,34176.00
2023-04-11T09:35:02.107Z,31072.00
2023-04-11T09:36:02.622Z,34432.00
2023-04-11T09:37:02.847Z,33216.00
2023-04-11T09:38:02.949Z,32992.00
2023-04-11T09:39:03.328Z,33440.00
2023-04-11T09:40:03.973Z,33728.00
2023-04-11T09:41:03.124Z,12600.00
2023-04-11T09:42:02.119Z,10096.00
2023-04-11T09:43:02.225Z,28832.00
2023-04-11T09:44:02.472Z,33248.00
2023-04-11T09:45:02.494Z,33888.00
2023-04-11T09:46:02.618Z,35104.00
2023-04-11T09:47:02.876Z,35072.00
2023-04-11T09:48:03.061Z,10048.00
2023-04-11T09:49:03.406Z,9644.00
2023-04-11T09:50:03.132Z,15500.00
2023-04-11T09:51:03.290Z,35104.00
2023-04-11T09:52:02.229Z,37408.00
2023-04-11T09:53:02.073Z,39104.00
2023-04-11T09:54:02.361Z,39712.00
2023-04-11T09:55:02.643Z,14708.00
2023-04-11T09:56:02.307Z,40672.00
2023-04-11T09:57:02.462Z,39936.00
2023-04-11T09:58:02.780Z,19840.00
2023-04-11T09:59:02.503Z,19072.00
2023-04-11T10:00:02.479Z,35296.00
2023-04-11T10:01:02.546Z,44032.00
2023-04-11T10:02:02.937Z,41632.00
2023-04-11T10:03:03.214Z,22784.00
2023-04-11T10:04:02.837Z,21120.00
2023-04-11T10:05:03.009Z,36288.00
2023-04-11T10:06:03.162Z,32320.00
2023-04-11T10:07:03.283Z,37792.00
2023-04-11T10:08:03.586Z,12004.00
2023-04-11T10:09:03.332Z,11960.00
2023-04-11T10:10:03.536Z,10848.00
2023-04-11T10:11:03.261Z,11204.00
2023-04-11T10:12:02.458Z,13200.00
2023-04-11T10:13:02.700Z,13008.00
2023-04-11T10:14:02.804Z,21632.00
2023-04-11T10:15:02.829Z,17184.00
2023-04-11T10:16:02.746Z,39584.00
2023-04-11T10:17:03.081Z,40512.00
2023-04-11T10:18:03.239Z,38592.00
2023-04-11T10:19:02.941Z,12788.00
2023-04-11T10:20:03.154Z,12612.00
2023-04-11T10:21:03.404Z,15048.00
2023-04-11T10:22:03.071Z,31040.00
2023-04-11T10:23:03.152Z,9708.00
2023-04-11T10:24:03.460Z,11016.00
2023-04-11T10:25:03.417Z,12072.00
2023-04-11T10:26:03.369Z,11124.00
2023-04-11T10:27:03.310Z,11352.00
2023-04-11T10:28:03.146Z,12560.00
2023-04-11T10:29:03.234Z,16960.00
2023-04-11T10:30:03.384Z,36992.00
2023-04-11T10:31:03.700Z,35104.00
2023-04-11T10:32:03.565Z,34944.00
2023-04-11T10:33:03.233Z,35200.00
2023-04-11T10:34:03.339Z,35584.00
2023-04-11T10:35:03.495Z,37120.00
2023-04-11T10:36:03.489Z,18592.00
2023-04-11T10:37:02.755Z,38496.00
2023-04-11T10:38:02.599Z,40672.00
2023-04-11T10:39:03.089Z,40736.00
2023-04-11T10:40:02.895Z,16160.00
2023-04-11T10:41:02.808Z,14112.00
2023-04-11T10:42:03.410Z,20384.00
2023-04-11T10:43:03.616Z,31904.00
2023-04-11T10:44:03.186Z,34464.00
2023-04-11T10:45:03.548Z,35360.00
2023-04-11T10:46:03.729Z,35776.00
2023-04-11T10:47:02.825Z,25312.00
2023-04-11T10:48:02.651Z,10232.00
2023-04-11T10:49:02.861Z,36224.00
2023-04-11T10:50:02.726Z,34784.00
2023-04-11T10:51:02.751Z,21760.00
2023-04-11T10:52:03.499Z,12500.00
2023-04-11T10:53:02.909Z,20768.00
2023-04-11T10:54:03.178Z,36832.00
2023-04-11T10:55:03.082Z,9168.00
2023-04-11T10:56:03.050Z,9244.00
2023-04-11T10:57:02.822Z,18304.00
2023-04-11T10:58:02.793Z,37248.00
2023-04-11T10:59:02.750Z,37536.00
2023-04-11T11:00:02.873Z,37120.00
2023-04-11T11:01:03.112Z,37088.00
2023-04-11T11:02:03.111Z,36992.00
2023-04-11T11:03:02.838Z,37152.00
2023-04-11T11:04:03.115Z,37184.00
2023-04-11T11:05:02.802Z,38016.00
2023-04-11T11:06:02.685Z,38304.00
2023-04-11T11:07:02.572Z,38272.00
2023-04-11T11:08:02.149Z,37856.00
2023-04-11T11:09:02.320Z,15392.00
2023-04-11T11:10:02.353Z,39104.00
2023-04-11T11:11:02.109Z,14696.00
2023-04-11T11:12:02.838Z,40288.00
2023-04-11T11:13:02.768Z,16960.00
2023-04-11T11:14:02.697Z,13540.00
2023-04-11T11:15:02.939Z,10012.00
2023-04-11T11:16:02.731Z,8832.00
2023-04-11T11:17:03.204Z,8808.00
2023-04-11T11:18:02.515Z,9336.00
2023-04-11T11:19:02.551Z,9400.00
2023-04-11T11:20:02.914Z,9164.00
2023-04-11T11:21:03.258Z,8896.00
2023-04-11T11:22:02.468Z,8948.00
2023-04-11T11:23:02.267Z,35328.00
2023-04-11T11:24:02.369Z,35360.00
2023-04-11T11:25:02.516Z,35136.00
2023-04-11T11:26:02.449Z,18016.00
2023-04-11T11:27:02.655Z,35584.00
2023-04-11T11:28:02.150Z,36864.00
2023-04-11T11:29:02.321Z,37216.00
2023-04-11T11:30:02.394Z,35072.00
2023-04-11T11:31:02.208Z,11872.00
2023-04-11T11:32:03.038Z,37824.00
2023-04-11T11:33:02.661Z,38464.00
2023-04-11T11:34:18.353Z,38144.00
2023-04-11T11:35:02.825Z,38560.00
2023-04-11T11:36:02.730Z,15968.00
2023-04-11T11:37:02.742Z,14296.00
2023-04-11T11:38:02.751Z,16256.00
2023-04-11T11:39:02.297Z,16448.00
2023-04-11T11:40:02.624Z,12680.00
2023-04-11T11:41:02.698Z,38560.00
2023-04-11T11:42:03.219Z,11228.00
2023-04-11T11:43:02.769Z,36608.00
2023-04-11T11:44:03.143Z,35808.00
2023-04-11T11:45:03.235Z,35776.00
2023-04-11T11:46:04.789Z,36032.00
2023-04-11T11:47:02.867Z,37408.00
2023-04-11T11:48:02.397Z,38048.00
2023-04-11T11:49:02.508Z,38304.00
2023-04-11T11:50:02.430Z,37984.00
2023-04-11T11:51:02.488Z,38528.00
2023-04-11T11:52:03.190Z,38400.00
2023-04-11T11:53:02.788Z,37344.00
2023-04-11T11:54:02.914Z,35680.00
2023-04-11T11:55:02.950Z,34464.00
2023-04-11T11:56:02.885Z,33920.00
2023-04-11T11:57:03.222Z,8812.00
2023-04-11T11:58:03.083Z,9232.00
2023-04-11T11:59:03.120Z,34496.00
2023-04-11T12:00:02.611Z,30912.00
2023-04-11T12:01:03.069Z,11376.00
2023-04-11T12:02:03.266Z,15804.00
2023-04-11T12:03:03.208Z,10444.00
2023-04-11T12:04:03.320Z,11048.00
2023-04-11T12:05:02.839Z,34944.00
2023-04-11T12:06:02.894Z,11536.00
2023-04-11T12:07:03.919Z,12748.00
2023-04-11T12:08:03.960Z,37888.00
2023-04-11T12:09:03.922Z,13640.00
2023-04-11T12:10:03.652Z,12404.00
2023-04-11T12:11:03.777Z,10152.00
2023-04-11T12:12:02.794Z,10092.00
2023-04-11T12:13:02.826Z,9984.00
2023-04-11T12:14:02.818Z,9112.00
2023-04-11T12:15:03.499Z,32640.00
2023-04-11T12:16:03.501Z,8192.00
2023-04-11T12:17:03.018Z,27040.00
2023-04-11T12:18:03.479Z,8240.00
2023-04-11T12:19:03.547Z,15116.00
2023-04-11T12:20:03.136Z,10208.00
2023-04-11T12:21:03.110Z,33312.00
2023-04-11T12:22:03.276Z,9044.00
2023-04-11T12:23:03.765Z,34336.00
2023-04-11T12:24:03.330Z,21024.00